createdAt,value
2023-05-05T00:01:39.941Z,49.3
2023-05-05T00:03:23.295Z,49.3
2023-05-05T00:05:06.711Z,49.4
2023-05-05T00:06:50.090Z,49.4
2023-05-05T00:08:33.803Z,49.4
2023-05-05T00:10:17.185Z,49.4
2023-05-05T00:12:00.597Z,49.4
2023-05-05T00:13:43.984Z,49.4
2023-05-05T00:15:27.376Z,49.4
2023-05-05T00:17:10.769Z,49.4
2023-05-05T00:18:54.185Z,49.4
2023-05-05T00:20:37.574Z,49.4
2023-05-05T00:22:21.353Z,49.3
2023-05-05T00:24:04.745Z,49.3
2023-05-05T00:25:48.071Z,49.3
2023-05-05T00:27:31.467Z,49.4
2023-05-05T00:29:14.859Z,49.3
2023-05-05T00:30:58.295Z,49.4
2023-05-05T00:32:41.654Z,49.4
2023-05-05T00:34:25.026Z,49.4
2023-05-05T00:37:51.514Z,49.5
2023-05-05T00:39:34.963Z,49.5
2023-05-05T00:41:18.357Z,49.7
2023-05-05T00:43:01.709Z,49.8
2023-05-05T00:44:45.101Z,50
2023-05-05T00:46:28.517Z,50.1
2023-05-05T00:48:11.893Z,50.1
2023-05-05T00:53:21.132Z,49.9
2023-05-05T00:55:04.526Z,49.9
2023-05-05T00:56:47.934Z,49.9
2023-05-05T00:58:31.355Z,49.9
2023-05-05T01:00:14.731Z,49.9
2023-05-05T01:01:58.115Z,49.9
2023-05-05T01:03:41.525Z,49.8
2023-05-05T01:05:24.902Z,49.9
2023-05-05T01:07:08.625Z,49.9
2023-05-05T01:08:52.023Z,49.9
2023-05-05T01:10:35.407Z,49.8
2023-05-05T01:12:18.828Z,49.9
2023-05-05T01:14:02.203Z,49.8
2023-05-05T01:15:45.607Z,49.9
2023-05-05T01:17:28.999Z,49.9
2023-05-05T01:19:12.383Z,49.8
2023-05-05T01:22:38.863Z,49.9
2023-05-05T01:24:22.249Z,49.9
2023-05-05T01:26:05.722Z,49.9
2023-05-05T01:27:49.048Z,49.8
2023-05-05T01:29:32.447Z,49.8
2023-05-05T01:31:15.855Z,49.9
2023-05-05T01:32:59.254Z,49.9
2023-05-05T01:34:42.655Z,49.9
2023-05-05T01:38:09.124Z,49.8
2023-05-05T01:39:52.500Z,49.8
2023-05-05T01:41:35.901Z,49.9
2023-05-05T01:43:19.315Z,49.8
2023-05-05T01:45:02.706Z,49.9
2023-05-05T01:46:46.098Z,49.9
2023-05-05T01:48:29.500Z,49.9
2023-05-05T01:53:38.726Z,49.9
2023-05-05T01:55:22.133Z,49.9
2023-05-05T01:57:05.529Z,49.9
2023-05-05T01:58:48.918Z,49.9
2023-05-05T02:00:32.330Z,49.9
2023-05-05T02:02:15.723Z,49.9
2023-05-05T02:03:59.117Z,49.9
2023-05-05T02:09:08.355Z,49.9
2023-05-05T02:10:51.748Z,49.9
2023-05-05T02:12:35.142Z,49.9
2023-05-05T02:14:18.544Z,49.9
2023-05-05T02:16:01.950Z,49.9
2023-05-05T02:17:45.323Z,49.9
2023-05-05T02:19:28.731Z,49.9
2023-05-05T02:24:37.980Z,49.9
2023-05-05T02:26:21.384Z,50
2023-05-05T02:28:04.762Z,49.9
2023-05-05T02:29:48.155Z,49.9
2023-05-05T02:31:31.566Z,49.9
2023-05-05T02:33:14.948Z,50
2023-05-05T02:34:58.344Z,49.9
2023-05-05T02:40:07.588Z,50
2023-05-05T02:41:50.983Z,49.9
2023-05-05T02:43:34.387Z,50
2023-05-05T02:45:17.775Z,50
2023-05-05T02:47:01.168Z,50
2023-05-05T02:48:44.573Z,50
2023-05-05T02:50:27.968Z,50
2023-05-05T02:52:11.370Z,50
2023-05-05T02:55:37.846Z,50
2023-05-05T02:57:21.252Z,50
2023-05-05T02:59:04.702Z,50
2023-05-05T03:00:48.085Z,50.1
2023-05-05T03:02:31.419Z,50
2023-05-05T03:04:14.818Z,50.1
2023-05-05T03:05:58.216Z,50
2023-05-05T03:09:24.685Z,50
2023-05-05T03:11:08.069Z,50.1
2023-05-05T03:12:51.473Z,50.1
2023-05-05T03:14:34.895Z,50.1
2023-05-05T03:16:18.274Z,50.1
2023-05-05T03:18:01.683Z,50.1
2023-05-05T03:19:45.065Z,50.1
2023-05-05T03:21:28.449Z,50.1
2023-05-05T03:23:12.155Z,50.1
2023-05-05T03:24:55.556Z,50.1
2023-05-05T03:26:38.958Z,50.1
2023-05-05T03:28:22.331Z,50.1
2023-05-05T03:30:05.735Z,50.2
2023-05-05T03:31:49.161Z,50.1
2023-05-05T03:33:32.522Z,50.1
2023-05-05T03:35:15.936Z,50.1
2023-05-05T03:36:59.620Z,50.1
2023-05-05T03:38:43.036Z,50.2
2023-05-05T03:40:26.458Z,50.2
2023-05-05T03:42:09.961Z,50.1
2023-05-05T03:43:53.229Z,50.2
2023-05-05T03:45:36.616Z,50.2
2023-05-05T03:47:19.999Z,50.1
2023-05-05T03:49:03.408Z,50.1
2023-05-05T03:50:47.101Z,50.1
2023-05-05T03:52:30.545Z,50.2
2023-05-05T03:54:13.919Z,50.2
2023-05-05T03:55:57.292Z,50.2
2023-05-05T03:57:40.693Z,50.2
2023-05-05T03:59:24.080Z,50.2
2023-05-05T04:01:07.484Z,50.1
2023-05-05T04:02:50.883Z,50.1
2023-05-05T04:04:34.588Z,50.2
2023-05-05T04:06:17.974Z,50.2
2023-05-05T04:08:01.387Z,50.3
2023-05-05T04:09:44.777Z,50.2
2023-05-05T04:11:28.164Z,50.2
2023-05-05T04:13:11.564Z,50.2
2023-05-05T04:14:54.957Z,50.2
2023-05-05T04:16:38.492Z,50.2
2023-05-05T04:18:22.062Z,50.2
2023-05-05T04:20:05.465Z,50.2
2023-05-05T04:21:48.847Z,50.3
2023-05-05T04:23:32.249Z,50.3
2023-05-05T04:25:15.648Z,50.3
2023-05-05T04:26:59.040Z,50.3
2023-05-05T04:28:42.442Z,50.2
2023-05-05T04:30:25.827Z,50.2
2023-05-05T04:33:52.311Z,50.3
2023-05-05T04:35:35.704Z,50.3
2023-05-05T04:37:19.096Z,50.3
2023-05-05T04:39:02.496Z,50.3
2023-05-05T04:40:45.906Z,50.3
2023-05-05T04:42:29.290Z,50.3
2023-05-05T04:44:12.685Z,50.3
2023-05-05T04:45:56.069Z,50.3
2023-05-05T04:49:22.556Z,50.3
2023-05-05T04:51:05.942Z,50.3
2023-05-05T04:52:49.358Z,50.3
2023-05-05T04:54:32.746Z,50.3
2023-05-05T04:56:16.128Z,50.3
2023-05-05T04:57:59.537Z,50.3
2023-05-05T04:59:42.930Z,50.3
2023-05-05T05:01:26.317Z,50.3
2023-05-05T05:04:52.804Z,50.4
2023-05-05T05:06:36.201Z,50.3
2023-05-05T05:08:19.582Z,50.3
2023-05-05T05:10:02.986Z,50.4
2023-05-05T05:11:46.397Z,50.4
2023-05-05T05:13:29.783Z,50.4
2023-05-05T05:15:13.186Z,50.4
2023-05-05T05:16:56.585Z,50.4
2023-05-05T05:18:39.966Z,50.4
2023-05-05T05:20:23.684Z,50.4
2023-05-05T05:22:07.082Z,50.4
2023-05-05T05:23:50.466Z,50.4
2023-05-05T05:25:33.893Z,50.4
2023-05-05T05:27:17.255Z,50.4
2023-05-05T05:29:00.653Z,50.4
2023-05-05T05:30:44.062Z,50.4
2023-05-05T05:32:27.459Z,50.5
2023-05-05T05:35:53.926Z,50.5
2023-05-05T05:37:37.311Z,50.5
2023-05-05T05:39:20.843Z,50.5
2023-05-05T05:41:04.112Z,50.5
2023-05-05T05:42:47.494Z,50.5
2023-05-05T05:44:30.905Z,50.5
2023-05-05T05:46:14.301Z,50.5
2023-05-05T05:47:57.685Z,50.5
2023-05-05T05:51:24.170Z,50.5
2023-05-05T05:53:07.570Z,50.5
2023-05-05T05:54:50.948Z,50.5
2023-05-05T05:56:34.360Z,50.5
2023-05-05T05:58:17.763Z,50.5
2023-05-05T06:00:01.140Z,50.4
2023-05-05T06:01:44.555Z,50.5
2023-05-05T06:03:28.010Z,50.5
2023-05-05T06:05:11.715Z,50.5
2023-05-05T06:06:55.052Z,50.4
2023-05-05T06:08:38.449Z,50.5
2023-05-05T06:10:21.837Z,50.4
2023-05-05T06:12:05.221Z,50.5
2023-05-05T06:13:48.680Z,50.4
2023-05-05T06:15:32.023Z,50.4
2023-05-05T06:17:15.417Z,50.5
2023-05-05T06:22:24.647Z,50.4
2023-05-05T06:24:08.060Z,50.3
2023-05-05T06:25:51.511Z,50.4
2023-05-05T06:27:34.853Z,50.3
2023-05-05T06:29:18.256Z,50.3
2023-05-05T06:31:01.648Z,50.3
2023-05-05T06:32:45.075Z,50.3
2023-05-05T06:34:28.478Z,50.3
2023-05-05T06:37:54.992Z,50.3
2023-05-05T06:39:38.293Z,50.4
2023-05-05T06:41:21.747Z,50.4
2023-05-05T06:43:05.084Z,50.4
2023-05-05T06:44:48.499Z,50.4
2023-05-05T06:46:31.884Z,50.4
2023-05-05T06:48:15.277Z,50.4
2023-05-05T06:49:58.709Z,50.4
2023-05-05T06:51:42.393Z,50.4
2023-05-05T06:53:25.787Z,50.3
2023-05-05T06:55:09.163Z,50.2
2023-05-05T06:56:52.552Z,50.4
2023-05-05T06:58:35.953Z,50.4
2023-05-05T07:00:19.360Z,50.3
2023-05-05T07:02:02.789Z,50.1
2023-05-05T07:03:46.164Z,50.2
2023-05-05T07:07:12.646Z,50.1
2023-05-05T07:08:56.012Z,50
2023-05-05T07:10:39.515Z,50
2023-05-05T07:12:22.822Z,50
2023-05-05T07:14:06.245Z,50
2023-05-05T07:15:49.595Z,50.1
2023-05-05T07:17:33.118Z,50.3
2023-05-05T07:19:16.585Z,50.5
2023-05-05T07:24:25.833Z,50.5
2023-05-05T07:26:09.205Z,50.5
2023-05-05T07:27:52.632Z,50.6
2023-05-05T07:29:35.949Z,50.5
2023-05-05T07:31:19.349Z,50.8
2023-05-05T07:33:02.692Z,50.7
2023-05-05T07:34:46.064Z,50.6
2023-05-05T07:36:29.519Z,50.7
2023-05-05T07:38:13.270Z,50.6
2023-05-05T07:39:56.651Z,50.8
2023-05-05T07:41:40.068Z,50.9
2023-05-05T07:43:23.439Z,50.9
2023-05-05T07:45:06.792Z,50.9
2023-05-05T07:46:50.108Z,51.2
2023-05-05T07:48:33.484Z,51.3
2023-05-05T07:50:16.895Z,51.1
2023-05-05T07:53:43.436Z,51
2023-05-05T07:55:26.867Z,51.1
2023-05-05T07:57:10.139Z,51.1
2023-05-05T07:58:53.583Z,51.1
2023-05-05T08:00:36.939Z,51.1
2023-05-05T08:02:20.339Z,51.1
2023-05-05T08:04:03.720Z,51.1
2023-05-05T08:05:47.125Z,51.1
2023-05-05T08:09:13.598Z,51.1
2023-05-05T08:10:56.981Z,51.1
2023-05-05T08:12:40.394Z,51.3
2023-05-05T08:14:23.788Z,51.4
2023-05-05T08:16:07.189Z,51.3
2023-05-05T08:17:50.579Z,51.5
2023-05-05T08:19:33.989Z,51.6
2023-05-05T08:21:17.378Z,51.6
2023-05-05T08:23:01.079Z,51.5
2023-05-05T08:24:44.471Z,51.4
2023-05-05T08:26:27.878Z,51.2
2023-05-05T08:28:11.255Z,51.3
2023-05-05T08:29:54.670Z,51.3
2023-05-05T08:31:38.057Z,51.2
2023-05-05T08:33:21.456Z,51.2
2023-05-05T08:35:04.851Z,51.2
2023-05-05T08:36:48.547Z,51.3
2023-05-05T08:38:31.941Z,51.3
2023-05-05T08:40:15.344Z,51.3
2023-05-05T08:41:58.746Z,51.3
2023-05-05T08:43:42.230Z,51.3
2023-05-05T08:45:25.544Z,51.3
2023-05-05T08:47:08.999Z,51.4
2023-05-05T08:48:52.325Z,51.3
2023-05-05T08:50:36.038Z,51.3
2023-05-05T08:52:19.412Z,51.4
2023-05-05T08:54:02.835Z,51.4
2023-05-05T08:55:46.293Z,51.5
2023-05-05T08:59:13.022Z,51.5
2023-05-05T09:00:56.408Z,51.5
2023-05-05T09:02:39.794Z,51.5
2023-05-05T09:04:23.514Z,51.5
2023-05-05T09:06:06.911Z,51.5
2023-05-05T09:07:50.290Z,51.5
2023-05-05T09:09:33.706Z,51.5
2023-05-05T09:11:17.095Z,51.5
2023-05-05T09:13:00.480Z,51.6
2023-05-05T09:14:43.886Z,51.6
2023-05-05T09:16:27.371Z,51.6
2023-05-05T09:19:53.748Z,51.5
2023-05-05T09:21:37.158Z,51.5
2023-05-05T09:23:20.686Z,51.5
2023-05-05T09:25:03.959Z,51.5
2023-05-05T09:26:47.339Z,51.5
2023-05-05T09:28:30.744Z,51.6
2023-05-05T09:30:14.129Z,51.6
2023-05-05T09:31:57.520Z,51.6
2023-05-05T09:35:23.974Z,51.6
2023-05-05T09:37:07.413Z,51.6
2023-05-05T09:38:50.806Z,51.6
2023-05-05T09:40:34.180Z,51.6
2023-05-05T09:42:17.583Z,51.6
2023-05-05T09:44:00.970Z,51.6
2023-05-05T09:45:44.455Z,51.5
2023-05-05T09:47:27.796Z,51.5
2023-05-05T09:49:11.461Z,51.6
2023-05-05T09:50:54.894Z,51.7
2023-05-05T09:52:38.284Z,51.6
2023-05-05T09:54:21.664Z,51.4
2023-05-05T09:56:05.162Z,51.6
2023-05-05T09:57:48.442Z,51.6
2023-05-05T09:59:31.925Z,51.8
2023-05-05T10:01:15.390Z,51.7
2023-05-05T10:02:59.091Z,51.9
2023-05-05T10:04:42.600Z,51.8
2023-05-05T10:06:25.814Z,51.8
2023-05-05T10:08:09.140Z,51.7
2023-05-05T10:09:52.510Z,51.7
2023-05-05T10:11:36.066Z,51.7
2023-05-05T10:13:19.424Z,51.9
2023-05-05T10:15:02.846Z,51.9
2023-05-05T10:18:29.354Z,52
2023-05-05T10:20:12.610Z,52
2023-05-05T10:21:56.027Z,52.1
2023-05-05T10:23:39.525Z,52.1
2023-05-05T10:25:22.821Z,52.2
2023-05-05T10:27:06.160Z,52.2
2023-05-05T10:28:49.572Z,52.2
2023-05-05T10:30:32.959Z,52.2
2023-05-05T10:33:59.420Z,52.3
2023-05-05T10:35:42.835Z,52.4
2023-05-05T10:37:26.367Z,52.5
2023-05-05T10:39:09.679Z,52.5
2023-05-05T10:40:53.165Z,52.4
2023-05-05T10:42:36.409Z,52.5
2023-05-05T10:44:19.865Z,52.6
2023-05-05T10:46:03.228Z,52.5
2023-05-05T10:49:29.691Z,52.6
2023-05-05T10:51:13.088Z,52.6
2023-05-05T10:52:56.491Z,52.5
2023-05-05T10:54:39.860Z,52.4
2023-05-05T10:56:23.258Z,52.3
2023-05-05T10:58:06.662Z,52.3
2023-05-05T10:59:50.065Z,52.3
2023-05-05T11:04:59.284Z,52.1
2023-05-05T11:06:42.683Z,52.1
2023-05-05T11:08:26.085Z,52.1
2023-05-05T11:10:09.479Z,52.1
2023-05-05T11:11:53.012Z,52.1
2023-05-05T11:13:36.280Z,52.1
2023-05-05T11:15:19.791Z,52.2
2023-05-05T11:17:03.147Z,52.2
2023-05-05T11:18:46.762Z,52.2
2023-05-05T11:20:30.172Z,52.2
2023-05-05T11:22:13.560Z,52.3
2023-05-05T11:23:56.957Z,52.3
2023-05-05T11:25:40.357Z,52.3
2023-05-05T11:27:23.759Z,52.3
2023-05-05T11:29:07.128Z,52.4
2023-05-05T11:30:50.546Z,52.5
2023-05-05T11:34:17.023Z,52.4
2023-05-05T11:36:00.415Z,52.5
2023-05-05T11:37:43.789Z,52.5
2023-05-05T11:39:27.194Z,52.6
2023-05-05T11:41:10.601Z,52.6
2023-05-05T11:42:54.007Z,52.5
2023-05-05T11:44:37.377Z,52.5
2023-05-05T11:49:46.624Z,52.9
2023-05-05T11:51:30.023Z,52.8
2023-05-05T11:53:13.407Z,52.9
2023-05-05T11:54:56.819Z,53
2023-05-05T11:56:40.224Z,53
2023-05-05T11:58:23.604Z,53
2023-05-05T12:00:07.018Z,52.8
2023-05-05T12:03:33.490Z,52.9
2023-05-05T12:05:16.884Z,52.9
2023-05-05T12:07:00.264Z,52.9
2023-05-05T12:08:43.672Z,52.9
2023-05-05T12:10:27.058Z,52.7
2023-05-05T12:12:10.460Z,52.7
2023-05-05T12:13:53.851Z,52.7
2023-05-05T12:15:37.245Z,52.8
2023-05-05T12:19:03.726Z,52.8
2023-05-05T12:20:47.122Z,52.8
2023-05-05T12:22:30.506Z,52.8
2023-05-05T12:24:13.912Z,52.8
2023-05-05T12:25:57.303Z,52.8
2023-05-05T12:27:40.685Z,52.8
2023-05-05T12:29:24.118Z,52.8
2023-05-05T12:34:33.452Z,52.7
2023-05-05T12:36:16.750Z,52.8
2023-05-05T12:38:00.125Z,52.8
2023-05-05T12:39:43.573Z,52.9
2023-05-05T12:41:26.921Z,52.9
2023-05-05T12:43:10.320Z,53.1
2023-05-05T12:44:53.761Z,53.3
2023-05-05T12:50:02.937Z,52.9
2023-05-05T12:51:46.342Z,52.9
2023-05-05T12:53:29.753Z,52.9
2023-05-05T12:55:13.152Z,52.8
2023-05-05T12:56:56.538Z,52.7
2023-05-05T12:58:39.966Z,52.7
2023-05-05T13:00:23.335Z,52.8
2023-05-05T13:03:49.797Z,52.7
2023-05-05T13:05:33.192Z,52.7
2023-05-05T13:07:16.639Z,52.8
2023-05-05T13:09:00.001Z,52.9
2023-05-05T13:10:43.397Z,52.9
2023-05-05T13:12:26.841Z,53
2023-05-05T13:14:10.187Z,52.9
2023-05-05T13:19:19.438Z,52.7
2023-05-05T13:21:02.841Z,52.8
2023-05-05T13:22:46.226Z,52.8
2023-05-05T13:24:29.717Z,52.8
2023-05-05T13:26:13.013Z,52.7
2023-05-05T13:27:56.405Z,52.6
2023-05-05T13:29:39.815Z,52.4
2023-05-05T13:34:49.041Z,52.2
2023-05-05T13:36:32.461Z,52.3
2023-05-05T13:38:15.836Z,52.2
2023-05-05T13:39:59.221Z,52
2023-05-05T13:41:42.631Z,52.1
2023-05-05T13:43:26.031Z,52.2
2023-05-05T13:45:09.427Z,52.2
2023-05-05T13:46:52.801Z,52
2023-05-05T13:50:19.290Z,51.9
2023-05-05T13:52:02.681Z,51.9
2023-05-05T13:53:46.073Z,51.9
2023-05-05T13:55:29.484Z,51.8
2023-05-05T13:57:12.855Z,51.8
2023-05-05T13:58:56.292Z,51.8
2023-05-05T14:00:39.653Z,51.8
2023-05-05T14:05:48.904Z,51.3
2023-05-05T14:07:32.289Z,51.4
2023-05-05T14:09:15.694Z,51.7
2023-05-05T14:10:59.083Z,51.8
2023-05-05T14:12:42.505Z,51.8
2023-05-05T14:14:25.885Z,51.7
2023-05-05T14:16:09.290Z,51.6
2023-05-05T14:21:18.527Z,52
2023-05-05T14:23:01.934Z,52.4
2023-05-05T14:24:45.298Z,52.4
2023-05-05T14:26:28.715Z,52.6
2023-05-05T14:28:12.103Z,52.7
2023-05-05T14:29:55.496Z,52.9
2023-05-05T14:31:38.898Z,53
2023-05-05T14:33:22.284Z,53.3
2023-05-05T14:35:06.013Z,53.6
2023-05-05T14:36:49.395Z,53.7
2023-05-05T14:38:32.784Z,54
2023-05-05T14:40:16.180Z,54.1
2023-05-05T14:41:59.583Z,54.2
2023-05-05T14:43:42.965Z,54.2
2023-05-05T14:45:26.363Z,54.4
2023-05-05T14:47:09.753Z,54.5
2023-05-05T14:48:53.500Z,54.6
2023-05-05T14:50:36.865Z,54.7
2023-05-05T14:52:20.258Z,54.7
2023-05-05T14:54:03.684Z,54.8
2023-05-05T14:55:47.057Z,54.8
2023-05-05T14:57:30.512Z,55
2023-05-05T14:59:13.918Z,55
2023-05-05T15:00:57.240Z,55
2023-05-05T15:02:40.947Z,55.2
2023-05-05T15:04:24.404Z,55.1
2023-05-05T15:06:07.800Z,55.1
2023-05-05T15:07:51.138Z,55.1
2023-05-05T15:09:34.526Z,55.2
2023-05-05T15:11:17.917Z,55.2
2023-05-05T15:13:01.311Z,55.3
2023-05-05T15:14:44.712Z,55.3
2023-05-05T15:16:28.428Z,55.3
2023-05-05T15:18:11.835Z,55.3
2023-05-05T15:19:55.274Z,55.3
2023-05-05T15:21:38.638Z,55.3
2023-05-05T15:23:22.005Z,55.4
2023-05-05T15:25:05.395Z,55.4
2023-05-05T15:26:48.792Z,55.4
2023-05-05T15:28:32.190Z,55.4
2023-05-05T15:31:58.673Z,55.6
2023-05-05T15:33:42.056Z,55.6
2023-05-05T15:35:25.458Z,55.7
2023-05-05T15:37:08.939Z,55.7
2023-05-05T15:38:52.266Z,55.7
2023-05-05T15:40:35.648Z,55.7
2023-05-05T15:42:19.023Z,55.7
2023-05-05T15:44:02.424Z,55.8
2023-05-05T15:45:55.511Z,56
2023-05-05T15:47:42.254Z,56.1
2023-05-05T15:49:25.682Z,56.1
2023-05-05T15:51:09.027Z,56
2023-05-05T15:52:52.418Z,56.1
2023-05-05T15:54:35.823Z,56.1
2023-05-05T15:56:19.215Z,56.1
2023-05-05T15:58:02.926Z,56.1
2023-05-05T15:59:46.307Z,56.3
2023-05-05T16:01:29.715Z,56.4
2023-05-05T16:03:13.106Z,56.5
2023-05-05T16:04:56.502Z,56.5
2023-05-05T16:06:39.922Z,56.6
2023-05-05T16:08:23.290Z,56.8
2023-05-05T16:10:06.686Z,56.8
2023-05-05T16:11:50.396Z,56.8
2023-05-05T16:13:33.784Z,56.9
2023-05-05T16:15:17.209Z,57
2023-05-05T16:17:01.010Z,57
2023-05-05T16:18:43.966Z,57
2023-05-05T16:20:27.375Z,57.1
2023-05-05T16:22:10.789Z,57.1
2023-05-05T16:23:54.191Z,57.1
2023-05-05T16:27:20.646Z,57.1
2023-05-05T16:29:04.056Z,57
2023-05-05T16:30:47.420Z,57
2023-05-05T16:32:30.831Z,57.1
2023-05-05T16:34:14.219Z,57.1
2023-05-05T16:35:57.632Z,57.3
2023-05-05T16:37:41.029Z,57.4
2023-05-05T16:42:50.246Z,57.8
2023-05-05T16:44:33.671Z,58.1
2023-05-05T16:46:17.072Z,58.3
2023-05-05T16:48:00.448Z,58.5
2023-05-05T16:49:43.857Z,58.4
2023-05-05T16:51:27.297Z,58.5
2023-05-05T16:53:10.638Z,58.4
2023-05-05T16:54:54.077Z,58.4
2023-05-05T16:56:37.731Z,58.4
2023-05-05T16:58:21.124Z,58.4
2023-05-05T17:00:04.523Z,58.4
2023-05-05T17:01:47.928Z,58.3
2023-05-05T17:03:31.333Z,58.3
2023-05-05T17:05:14.704Z,58.4
2023-05-05T17:06:58.112Z,58.4
2023-05-05T17:12:07.345Z,58.3
2023-05-05T17:13:50.742Z,58.4
2023-05-05T17:15:34.127Z,58.5
2023-05-05T17:17:17.557Z,58.5
2023-05-05T17:19:00.959Z,58.5
2023-05-05T17:20:44.338Z,58.5
2023-05-05T17:22:27.756Z,58.5
2023-05-05T17:25:54.194Z,58.5
2023-05-05T17:27:37.590Z,58.5
2023-05-05T17:29:21.028Z,58.5
2023-05-05T17:31:04.423Z,58.5
2023-05-05T17:32:47.846Z,58.5
2023-05-05T17:34:31.180Z,58.5
2023-05-05T17:36:14.581Z,58.5
2023-05-05T17:39:41.047Z,58.5
2023-05-05T17:41:24.506Z,58.5
2023-05-05T17:44:51.240Z,58.5
2023-05-05T17:46:34.666Z,58.5
2023-05-05T17:48:18.019Z,58.5
2023-05-05T17:50:01.442Z,58.6
2023-05-05T17:55:10.659Z,58.7
2023-05-05T17:56:54.065Z,58.6
2023-05-05T17:58:37.503Z,58.7
2023-05-05T18:00:20.872Z,58.6
2023-05-05T18:02:04.264Z,58.5
2023-05-05T18:03:47.661Z,58.5
2023-05-05T18:05:31.112Z,58.3
2023-05-05T18:08:57.521Z,58.4
2023-05-05T18:10:41.065Z,58.5
2023-05-05T18:12:24.314Z,58.4
2023-05-05T18:14:07.711Z,58.5
2023-05-05T18:15:51.106Z,58.5
2023-05-05T18:17:34.521Z,58.5
2023-05-05T18:19:17.903Z,58.5
2023-05-05T18:21:01.302Z,58.5
2023-05-05T18:22:45.115Z,58.5
2023-05-05T18:24:28.418Z,58.5
2023-05-05T18:26:11.793Z,58.5
2023-05-05T18:27:55.190Z,58.5
2023-05-05T18:29:38.580Z,58.6
2023-05-05T18:31:21.986Z,58.6
2023-05-05T18:33:05.376Z,58.5
2023-05-05T18:34:48.771Z,58.5
2023-05-05T18:36:32.483Z,58.5
2023-05-05T18:38:15.894Z,58.5
2023-05-05T18:39:59.266Z,58.4
2023-05-05T18:41:42.680Z,58.4
2023-05-05T18:43:26.102Z,58.5
2023-05-05T18:45:09.461Z,58.5
2023-05-05T18:46:52.848Z,58.6
2023-05-05T18:48:36.243Z,58.6
2023-05-05T18:52:02.726Z,58.6
2023-05-05T18:53:46.117Z,58.6
2023-05-05T18:55:29.503Z,58.6
2023-05-05T18:57:12.922Z,58.6
2023-05-05T18:58:56.341Z,58.6
2023-05-05T19:00:39.706Z,58.6
2023-05-05T19:02:23.088Z,58.6
2023-05-05T19:07:32.352Z,58.5
2023-05-05T19:09:15.869Z,58.5
2023-05-05T19:10:59.296Z,58.6
2023-05-05T19:12:42.794Z,58.6
2023-05-05T19:14:26.130Z,58.6
2023-05-05T19:16:09.421Z,58.6
2023-05-05T19:17:52.889Z,58.5
2023-05-05T19:21:19.454Z,58.5
2023-05-05T19:23:02.800Z,58.5
2023-05-05T19:24:46.129Z,58.5
2023-05-05T19:26:29.565Z,58.5
2023-05-05T19:28:12.959Z,58.6
2023-05-05T19:29:56.276Z,58.6
2023-05-05T19:31:39.750Z,58.6
2023-05-05T19:35:06.030Z,58.6
2023-05-05T19:36:49.429Z,58.6
2023-05-05T19:38:32.977Z,58.6
2023-05-05T19:40:16.369Z,58.5
2023-05-05T19:41:59.660Z,58.6
2023-05-05T19:43:43.102Z,58.6
2023-05-05T19:45:26.585Z,58.6
2023-05-05T19:48:52.880Z,58.5
2023-05-05T19:50:36.470Z,58.5
2023-05-05T19:52:19.818Z,58.5
2023-05-05T19:54:03.211Z,58.5
2023-05-05T19:55:46.591Z,58.5
2023-05-05T19:57:29.937Z,58.5
2023-05-05T19:59:13.621Z,58.5
2023-05-05T20:02:39.731Z,58.4
2023-05-05T20:04:23.303Z,58.4
2023-05-05T20:06:06.674Z,58.4
2023-05-05T20:07:50.126Z,58.4
2023-05-05T20:09:33.537Z,58.4
2023-05-05T20:11:16.850Z,58.3
2023-05-05T20:13:00.224Z,58.3
2023-05-05T20:16:26.747Z,58.3
2023-05-05T20:18:10.013Z,58.3
2023-05-05T20:19:53.497Z,58.3
2023-05-05T20:21:36.903Z,58.2
2023-05-05T20:23:20.341Z,58.2
2023-05-05T20:25:03.733Z,58.2
2023-05-05T20:26:46.968Z,58.2
2023-05-05T20:28:30.519Z,58.1
2023-05-05T20:30:14.065Z,58.1
2023-05-05T20:31:57.570Z,58.1
2023-05-05T20:33:41.077Z,58
2023-05-05T20:35:24.251Z,58
2023-05-05T20:37:07.880Z,57.9
2023-05-05T20:38:51.051Z,58
2023-05-05T20:40:34.474Z,57.9
2023-05-05T20:45:43.787Z,57.9
2023-05-05T20:47:27.206Z,57.9
2023-05-05T20:49:10.613Z,57.9
2023-05-05T20:50:54.014Z,57.9
2023-05-05T20:52:37.278Z,57.9
2023-05-05T20:54:20.666Z,57.9
2023-05-05T20:56:04.246Z,57.9
2023-05-05T20:59:30.669Z,57.8
2023-05-05T21:01:14.111Z,57.8
2023-05-05T21:02:57.502Z,57.8
2023-05-05T21:04:40.767Z,57.8
2023-05-05T21:06:24.281Z,57.8
2023-05-05T21:08:07.610Z,57.8
2023-05-05T21:09:51.108Z,57.8
2023-05-05T21:15:00.207Z,57.8
2023-05-05T21:16:43.525Z,57.8
2023-05-05T21:18:27.054Z,57.8
2023-05-05T21:20:10.404Z,57.8
2023-05-05T21:21:53.871Z,57.7
2023-05-05T21:23:37.275Z,57.7
2023-05-05T21:25:20.666Z,57.7
2023-05-05T21:27:04.013Z,57.7
2023-05-05T21:28:47.790Z,57.7
2023-05-05T21:30:31.176Z,57.7
2023-05-05T21:32:14.419Z,57.8
2023-05-05T21:33:57.875Z,57.7
2023-05-05T21:35:41.332Z,57.7
2023-05-05T21:37:24.607Z,57.7
2023-05-05T21:39:08.150Z,57.6
2023-05-05T21:40:51.417Z,57.6
2023-05-05T21:42:35.278Z,57.6
2023-05-05T21:44:18.714Z,57.6
2023-05-05T21:46:01.928Z,57.6
2023-05-05T21:47:45.386Z,57.6
2023-05-05T21:49:28.736Z,57.5
2023-05-05T21:51:12.225Z,57.5
2023-05-05T21:52:55.485Z,57.5
2023-05-05T21:54:39.007Z,57.5
2023-05-05T21:56:22.711Z,57.4
2023-05-05T21:58:06.076Z,57.4
2023-05-05T21:59:49.432Z,57.4
2023-05-05T22:01:32.824Z,57.4
2023-05-05T22:03:16.161Z,57.4
2023-05-05T22:04:59.720Z,57.4
2023-05-05T22:06:43.072Z,57.4
2023-05-05T22:10:09.428Z,57.4
2023-05-05T22:11:52.864Z,57.4
2023-05-05T22:13:36.213Z,57.3
2023-05-05T22:15:19.602Z,57.3
2023-05-05T22:17:03.060Z,57.3
2023-05-05T22:18:46.399Z,57.3
2023-05-05T22:20:29.830Z,57.3
2023-05-05T22:25:39.109Z,57.3
2023-05-05T22:27:22.428Z,57.3
2023-05-05T22:29:05.992Z,57.2
2023-05-05T22:30:49.376Z,57.2
2023-05-05T22:32:32.621Z,57.2
2023-05-05T22:34:16.014Z,57.2
2023-05-05T22:35:59.411Z,57.2
2023-05-05T22:39:25.955Z,57.2
2023-05-05T22:42:52.776Z,57.2
2023-05-05T22:44:36.175Z,57.1
2023-05-05T22:46:19.615Z,57.1
2023-05-05T22:48:02.932Z,57.2
2023-05-05T22:49:46.251Z,57.1
2023-05-05T22:51:29.981Z,57.2
2023-05-05T22:53:13.468Z,57.1
2023-05-05T22:54:56.856Z,57.1
2023-05-05T22:56:40.369Z,57.2
2023-05-05T22:58:23.815Z,57.1
2023-05-05T23:00:06.945Z,57.1
2023-05-05T23:01:50.511Z,57.1
2023-05-05T23:05:16.849Z,57.1
2023-05-05T23:07:00.367Z,57.1
2023-05-05T23:08:43.601Z,57.1
2023-05-05T23:10:27.096Z,57
2023-05-05T23:12:10.454Z,57
2023-05-05T23:13:53.786Z,57
2023-05-05T23:15:37.304Z,57
2023-05-05T23:20:46.596Z,56.9
2023-05-05T23:22:29.827Z,56.9
2023-05-05T23:24:13.352Z,56.9
2023-05-05T23:25:56.788Z,56.8
2023-05-05T23:27:40.195Z,56.8
2023-05-05T23:29:23.503Z,56.8
2023-05-05T23:31:06.961Z,56.7
2023-05-05T23:34:33.367Z,56.7
2023-05-05T23:36:16.737Z,56.6
2023-05-05T23:38:00.076Z,56.6
2023-05-05T23:39:43.463Z,56.6
2023-05-05T23:41:26.863Z,56.6
2023-05-05T23:43:10.264Z,56.6
2023-05-05T23:44:53.648Z,56.5
2023-05-05T23:50:02.902Z,56.5
2023-05-05T23:51:46.300Z,56.5
2023-05-05T23:53:29.701Z,56.4
2023-05-05T23:55:13.076Z,56.4
2023-05-05T23:56:56.492Z,56.4
2023-05-05T23:58:39.896Z,56.4
